createdAt,value
2022-08-14T00:02:04.225Z,6.90
2022-08-14T00:04:41.818Z,6.03
2022-08-14T00:07:11.415Z,6.53
2022-08-14T00:10:01.949Z,7.50
2022-08-14T00:12:34.051Z,7.40
2022-08-14T00:15:18.360Z,6.63
2022-08-14T00:17:52.915Z,6.80
2022-08-14T00:20:30.787Z,7.53
2022-08-14T00:23:12.505Z,7.00
2022-08-14T00:25:58.809Z,6.93
2022-08-14T00:28:35.407Z,7.90
2022-08-14T00:31:04.588Z,7.82
2022-08-14T00:33:50.533Z,7.80
2022-08-14T00:36:36.542Z,7.78
2022-08-14T00:39:09.331Z,8.13
2022-08-14T00:41:39.177Z,8.50
2022-08-14T00:44:06.935Z,8.20
2022-08-14T00:46:36.380Z,8.35
2022-08-14T00:49:04.953Z,7.65
2022-08-14T00:51:38.043Z,7.95
2022-08-14T00:54:16.650Z,8.57
2022-08-14T00:56:49.652Z,8.07
2022-08-14T00:59:16.583Z,8.32
2022-08-14T01:01:44.539Z,8.20
2022-08-14T01:04:51.966Z,8.85
2022-08-14T01:07:00.886Z,9.00
2022-08-14T01:09:32.247Z,8.68
2022-08-14T01:12:02.646Z,8.80
2022-08-14T01:14:30.038Z,9.40
2022-08-14T01:16:57.738Z,8.70
2022-08-14T01:19:45.098Z,8.10
2022-08-14T01:22:18.878Z,9.02
2022-08-14T01:24:46.838Z,9.25
2022-08-14T01:27:18.725Z,9.68
2022-08-14T01:30:00.803Z,9.38
2022-08-14T01:32:37.402Z,10.03
2022-08-14T01:35:19.830Z,9.52
2022-08-14T01:37:57.986Z,9.85
2022-08-14T01:40:36.817Z,10.35
2022-08-14T01:43:18.781Z,10.55
2022-08-14T01:45:57.733Z,10.10
2022-08-14T01:48:37.364Z,10.00
2022-08-14T01:51:19.063Z,10.35
2022-08-14T01:53:55.336Z,9.70
2022-08-14T01:56:39.726Z,9.25
2022-08-14T01:59:21.740Z,9.55
2022-08-14T02:01:58.560Z,9.75
2022-08-14T02:04:40.899Z,9.68
2022-08-14T02:07:34.189Z,9.60
2022-08-14T02:10:08.627Z,9.52
2022-08-14T02:12:41.009Z,9.10
2022-08-14T02:15:10.739Z,9.25
2022-08-14T02:17:38.547Z,10.02
2022-08-14T02:20:08.638Z,10.02
2022-08-14T02:22:40.882Z,9.25
2022-08-14T02:25:16.626Z,9.30
2022-08-14T02:28:22.504Z,8.63
2022-08-14T02:30:33.903Z,9.40
2022-08-14T02:33:01.333Z,9.80
2022-08-14T02:35:32.763Z,9.82
2022-08-14T02:38:00.943Z,9.23
2022-08-14T02:40:34.170Z,9.32
2022-08-14T02:43:05.459Z,9.45
2022-08-14T02:45:38.212Z,9.63
2022-08-14T02:49:01.698Z,9.45
2022-08-14T02:51:02.686Z,9.93
2022-08-14T02:53:31.143Z,9.73
2022-08-14T02:56:03.048Z,9.40
2022-08-14T02:58:50.664Z,9.40
2022-08-14T03:01:24.186Z,9.85
2022-08-14T03:03:58.173Z,9.52
2022-08-14T03:06:35.251Z,9.98
2022-08-14T03:09:12.607Z,10.23
2022-08-14T03:11:39.850Z,10.40
2022-08-14T03:14:12.689Z,10.73
2022-08-14T03:16:43.150Z,10.90
2022-08-14T03:19:11.810Z,10.82
2022-08-14T03:21:40.689Z,11.10
2022-08-14T03:24:07.794Z,11.23
2022-08-14T03:26:49.832Z,11.90
2022-08-14T03:29:26.518Z,10.97
2022-08-14T03:31:54.215Z,10.40
2022-08-14T03:34:24.626Z,10.70
2022-08-14T03:37:37.939Z,10.82
2022-08-14T03:40:00.378Z,11.10
2022-08-14T03:42:35.974Z,10.57
2022-08-14T03:45:26.285Z,10.68
2022-08-14T03:47:56.107Z,11.05
2022-08-14T03:50:27.854Z,11.20
2022-08-14T03:53:03.547Z,11.18
2022-08-14T03:55:31.339Z,11.33
2022-08-14T03:58:00.448Z,10.32
2022-08-14T04:00:42.949Z,11.40
2022-08-14T04:03:17.964Z,11.38
2022-08-14T04:05:49.053Z,11.20
2022-08-14T04:08:29.126Z,11.17
2022-08-14T04:11:00.990Z,11.10
2022-08-14T04:13:34.333Z,11.88
2022-08-14T04:16:12.437Z,11.32
2022-08-14T04:18:45.340Z,11.10
2022-08-14T04:21:14.866Z,12.20
2022-08-14T04:23:44.258Z,10.55
2022-08-14T04:26:15.089Z,10.68
2022-08-14T04:29:06.920Z,11.13
2022-08-14T04:33:02.839Z,11.35
2022-08-14T04:34:29.902Z,12.13
2022-08-14T04:37:25.374Z,12.20
2022-08-14T04:40:12.270Z,11.75
2022-08-14T04:42:58.291Z,11.93
2022-08-14T04:45:32.891Z,12.38
2022-08-14T04:48:38.760Z,12.30
2022-08-14T04:51:04.679Z,12.38
2022-08-14T04:53:34.749Z,11.60
2022-08-14T04:56:10.365Z,12.88
2022-08-14T04:58:39.112Z,12.85
2022-08-14T05:01:12.825Z,12.57
2022-08-14T05:03:50.601Z,12.48
2022-08-14T05:06:38.436Z,13.50
2022-08-14T05:09:06.213Z,13.18
2022-08-14T05:11:34.542Z,12.77
2022-08-14T05:14:17.009Z,12.43
2022-08-14T05:16:52.628Z,12.98
2022-08-14T05:19:27.031Z,12.27
2022-08-14T05:22:17.571Z,12.75
2022-08-14T05:24:50.235Z,13.35
2022-08-14T05:27:23.290Z,14.03
2022-08-14T05:29:56.821Z,12.82
2022-08-14T05:32:27.991Z,13.20
2022-08-14T05:34:59.954Z,12.80
2022-08-14T05:37:29.591Z,12.20
2022-08-14T05:39:58.467Z,13.53
2022-08-14T05:42:29.079Z,12.10
2022-08-14T05:44:59.011Z,13.52
2022-08-14T05:47:28.647Z,13.27
2022-08-14T05:49:58.383Z,12.68
2022-08-14T05:52:38.766Z,12.07
2022-08-14T05:55:12.585Z,12.85
2022-08-14T05:57:52.958Z,12.65
2022-08-14T06:00:29.934Z,13.15
2022-08-14T06:03:07.015Z,12.95
2022-08-14T06:05:35.136Z,12.18
2022-08-14T06:08:08.579Z,12.00
2022-08-14T06:10:50.786Z,12.82
2022-08-14T06:13:18.919Z,12.05
2022-08-14T06:15:47.855Z,12.43
2022-08-14T06:18:17.666Z,11.25
2022-08-14T06:20:46.035Z,11.45
2022-08-14T06:23:13.456Z,11.27
2022-08-14T06:25:41.911Z,11.73
2022-08-14T06:28:26.917Z,11.00
2022-08-14T06:30:55.332Z,11.85
2022-08-14T06:33:22.649Z,11.57
2022-08-14T06:35:50.089Z,11.57
2022-08-14T06:38:23.241Z,11.65
2022-08-14T06:40:51.968Z,10.95
2022-08-14T06:43:20.790Z,12.20
2022-08-14T06:45:54.031Z,11.52
2022-08-14T06:48:25.463Z,11.48
2022-08-14T06:50:57.995Z,11.43
2022-08-14T06:53:28.077Z,11.02
2022-08-14T06:56:00.526Z,11.70
2022-08-14T06:58:31.432Z,11.02
2022-08-14T07:01:25.042Z,10.82
2022-08-14T07:04:23.916Z,10.25
2022-08-14T07:06:55.644Z,9.98
2022-08-14T07:09:28.263Z,9.35
2022-08-14T07:12:54.694Z,9.13
2022-08-14T07:15:01.219Z,9.45
2022-08-14T07:17:28.917Z,9.07
2022-08-14T07:19:59.158Z,8.95
2022-08-14T07:22:32.670Z,8.15
2022-08-14T07:25:13.826Z,8.90
2022-08-14T07:27:42.833Z,8.73
2022-08-14T07:30:33.896Z,8.63
2022-08-14T07:32:57.886Z,8.55
2022-08-14T07:35:24.882Z,8.57
2022-08-14T07:37:57.482Z,8.40
2022-08-14T07:40:27.752Z,8.00
2022-08-14T07:42:57.322Z,8.40
2022-08-14T07:45:42.274Z,7.47
2022-08-14T07:48:09.486Z,7.20
2022-08-14T07:50:42.466Z,7.68
2022-08-14T07:53:14.522Z,8.15
2022-08-14T07:55:42.982Z,6.93
2022-08-14T07:58:33.875Z,7.75
2022-08-14T08:00:58.200Z,7.25
2022-08-14T08:03:30.383Z,7.27
2022-08-14T08:05:58.101Z,7.45
2022-08-14T08:08:26.803Z,7.10
2022-08-14T08:11:02.030Z,7.32
2022-08-14T08:13:33.808Z,6.53
2022-08-14T08:16:08.235Z,6.67
2022-08-14T08:18:36.048Z,6.75
2022-08-14T08:21:04.326Z,6.30
2022-08-14T08:23:40.855Z,5.40
2022-08-14T08:26:18.768Z,5.97
2022-08-14T08:28:56.877Z,6.20
2022-08-14T08:31:24.685Z,6.30
2022-08-14T08:34:03.981Z,6.78
2022-08-14T08:36:40.545Z,6.38
2022-08-14T08:39:16.794Z,5.75
2022-08-14T08:41:49.420Z,5.50
2022-08-14T08:44:32.499Z,5.18
2022-08-14T08:47:06.472Z,5.80
2022-08-14T08:49:49.940Z,5.88
2022-08-14T08:52:32.110Z,6.05
2022-08-14T08:55:00.862Z,6.53
2022-08-14T08:57:35.921Z,5.30
2022-08-14T09:00:24.171Z,5.70
2022-08-14T09:02:58.204Z,5.30
2022-08-14T09:05:26.123Z,5.13
2022-08-14T09:07:56.512Z,5.33
2022-08-14T09:10:24.017Z,6.00
2022-08-14T09:12:56.283Z,5.38
2022-08-14T09:15:24.220Z,5.90
2022-08-14T09:17:52.717Z,5.65
2022-08-14T09:20:26.423Z,5.73
2022-08-14T09:22:58.056Z,5.22
2022-08-14T09:26:00.141Z,5.50
2022-08-14T09:28:12.965Z,5.72
2022-08-14T09:30:49.973Z,5.68
2022-08-14T09:33:30.096Z,5.27
2022-08-14T09:36:21.490Z,5.47
2022-08-14T09:38:54.989Z,5.65
2022-08-14T09:42:21.139Z,5.43
2022-08-14T09:45:08.500Z,5.05
2022-08-14T09:47:45.386Z,5.30
2022-08-14T09:50:16.494Z,4.57
2022-08-14T09:52:54.751Z,5.30
2022-08-14T09:55:24.050Z,5.47
2022-08-14T09:57:52.975Z,4.65
2022-08-14T10:01:00.649Z,5.03
2022-08-14T10:03:34.416Z,4.90
2022-08-14T10:06:08.626Z,4.47
2022-08-14T10:08:44.310Z,4.85
2022-08-14T10:11:35.079Z,5.05
2022-08-14T10:14:29.079Z,5.23
2022-08-14T10:17:05.185Z,4.43
2022-08-14T10:19:35.955Z,4.60
2022-08-14T10:23:15.311Z,4.65
2022-08-14T10:24:59.682Z,4.57
2022-08-14T10:27:27.270Z,4.87
2022-08-14T10:30:03.923Z,4.63
2022-08-14T10:32:40.118Z,4.10
2022-08-14T10:35:14.440Z,3.80
2022-08-14T10:37:52.489Z,4.20
2022-08-14T10:40:38.187Z,3.73
2022-08-14T10:43:27.786Z,4.20
2022-08-14T10:47:36.810Z,3.70
2022-08-14T10:49:04.970Z,3.72
2022-08-14T10:51:36.299Z,3.95
2022-08-14T10:54:35.543Z,4.37
2022-08-14T10:57:12.405Z,5.43
2022-08-14T10:59:49.921Z,4.40
2022-08-14T11:02:45.301Z,3.40
2022-08-14T11:05:20.368Z,3.50
2022-08-14T11:07:57.089Z,3.20
2022-08-14T11:10:40.876Z,3.47
2022-08-14T11:13:10.341Z,4.00
2022-08-14T11:15:37.295Z,3.80
2022-08-14T11:18:05.474Z,3.53
2022-08-14T11:20:32.931Z,3.67
2022-08-14T11:23:01.515Z,3.75
2022-08-14T11:25:43.598Z,4.05
2022-08-14T11:28:19.133Z,4.22
2022-08-14T11:30:54.406Z,4.20
2022-08-14T11:33:29.234Z,4.20
2022-08-14T11:35:59.650Z,3.30
2022-08-14T11:38:29.220Z,3.83
2022-08-14T11:41:00.237Z,3.55
2022-08-14T11:43:29.667Z,3.67
2022-08-14T11:45:57.975Z,4.30
2022-08-14T11:49:04.323Z,3.85
2022-08-14T11:51:18.752Z,4.20
2022-08-14T11:53:54.147Z,3.60
2022-08-14T11:56:25.625Z,3.63
2022-08-14T11:58:56.585Z,3.10
2022-08-14T12:01:31.274Z,3.85
2022-08-14T12:04:21.777Z,3.47
2022-08-14T12:07:00.967Z,3.85
2022-08-14T12:09:37.376Z,3.63
2022-08-14T12:12:35.199Z,3.43
2022-08-14T12:15:06.994Z,3.25
2022-08-14T12:17:49.526Z,3.20
2022-08-14T12:20:30.117Z,3.50
2022-08-14T12:23:01.151Z,3.95
2022-08-14T12:25:28.946Z,4.00
2022-08-14T12:27:59.497Z,3.80
2022-08-14T12:30:39.578Z,3.80
2022-08-14T12:33:33.473Z,3.78
2022-08-14T12:36:04.250Z,3.33
2022-08-14T12:38:36.014Z,3.60
2022-08-14T12:41:06.502Z,3.70
2022-08-14T12:43:49.063Z,3.75
2022-08-14T12:46:28.489Z,3.70
2022-08-14T12:48:57.946Z,3.50
2022-08-14T12:51:27.602Z,4.30
2022-08-14T12:53:59.707Z,3.67
2022-08-14T12:56:33.637Z,4.13
2022-08-14T12:59:01.851Z,3.72
2022-08-14T13:01:58.917Z,3.47
2022-08-14T13:04:19.076Z,3.70
2022-08-14T13:06:50.822Z,3.58
2022-08-14T13:09:19.168Z,3.92
2022-08-14T13:11:58.347Z,4.13
2022-08-14T13:14:30.032Z,3.60
2022-08-14T13:16:58.533Z,3.30
2022-08-14T13:19:28.473Z,3.75
2022-08-14T13:22:04.793Z,3.60
2022-08-14T13:24:39.616Z,3.75
2022-08-14T13:27:10.062Z,3.80
2022-08-14T13:29:46.861Z,3.67
2022-08-14T13:32:15.370Z,3.92
2022-08-14T13:34:45.943Z,4.03
2022-08-14T13:37:16.940Z,4.30
2022-08-14T13:39:56.346Z,4.05
2022-08-14T13:42:30.694Z,4.40
2022-08-14T13:45:04.101Z,3.58
2022-08-14T13:47:33.211Z,4.13
2022-08-14T13:50:04.613Z,3.55
2022-08-14T13:52:52.908Z,4.05
2022-08-14T13:55:28.592Z,4.37
2022-08-14T13:58:04.232Z,4.40
2022-08-14T14:00:52.129Z,4.70
2022-08-14T14:03:23.207Z,4.25
2022-08-14T14:05:54.362Z,4.32
2022-08-14T14:08:46.119Z,4.00
2022-08-14T14:11:14.322Z,3.58
2022-08-14T14:13:46.002Z,4.10
2022-08-14T14:16:25.956Z,3.85
2022-08-14T14:19:08.721Z,4.15
2022-08-14T14:21:40.719Z,4.17
2022-08-14T14:24:15.184Z,4.50
2022-08-14T14:26:50.059Z,4.28
2022-08-14T14:29:19.428Z,4.28
2022-08-14T14:31:53.981Z,4.82
2022-08-14T14:34:29.293Z,5.03
2022-08-14T14:37:03.480Z,4.13
2022-08-14T14:39:37.608Z,3.88
2022-08-14T14:42:06.484Z,4.95
2022-08-14T14:44:40.358Z,4.30
2022-08-14T14:47:12.238Z,4.33
2022-08-14T14:49:51.498Z,4.90
2022-08-14T14:52:27.661Z,3.80
2022-08-14T14:55:06.561Z,5.10
2022-08-14T14:57:36.151Z,4.80
2022-08-14T15:00:19.590Z,4.60
2022-08-14T15:02:49.640Z,4.13
2022-08-14T15:05:20.854Z,4.45
2022-08-14T15:07:52.780Z,4.95
2022-08-14T15:10:27.904Z,5.07
2022-08-14T15:13:04.509Z,4.50
2022-08-14T15:15:37.799Z,4.55
2022-08-14T15:18:14.771Z,4.50
2022-08-14T15:20:57.676Z,4.55
2022-08-14T15:23:25.365Z,5.00
2022-08-14T15:26:01.295Z,4.10
2022-08-14T15:28:29.630Z,4.43
2022-08-14T15:31:05.985Z,5.30
2022-08-14T15:34:00.981Z,4.28
2022-08-14T15:36:48.630Z,4.65
2022-08-14T15:39:16.030Z,4.80
2022-08-14T15:41:43.360Z,4.30
2022-08-14T15:44:19.007Z,4.43
2022-08-14T15:46:52.777Z,4.00
2022-08-14T15:49:20.219Z,4.20
2022-08-14T15:51:48.359Z,4.37
2022-08-14T15:54:18.000Z,3.80
2022-08-14T15:57:06.350Z,3.50
2022-08-14T15:59:55.319Z,4.70
2022-08-14T16:02:24.468Z,3.83
2022-08-14T16:04:55.023Z,3.90
2022-08-14T16:07:22.305Z,4.75
2022-08-14T16:10:18.332Z,4.18
2022-08-14T16:12:54.535Z,4.55
2022-08-14T16:15:22.656Z,3.90
2022-08-14T16:17:52.896Z,4.27
2022-08-14T16:20:41.438Z,4.55
2022-08-14T16:23:11.430Z,3.72
2022-08-14T16:25:42.814Z,3.80
2022-08-14T16:28:10.342Z,4.35
2022-08-14T16:30:54.652Z,3.90
2022-08-14T16:33:56.550Z,4.35
2022-08-14T16:36:29.817Z,4.32
2022-08-14T16:39:00.577Z,3.83
2022-08-14T16:41:28.276Z,3.90
2022-08-14T16:44:04.710Z,4.67
2022-08-14T16:46:35.328Z,3.92
2022-08-14T16:49:05.585Z,3.67
2022-08-14T16:51:36.487Z,4.22
2022-08-14T16:54:20.930Z,3.80
2022-08-14T16:57:20.740Z,4.37
2022-08-14T16:59:52.273Z,4.35
2022-08-14T17:02:42.716Z,3.42
2022-08-14T17:05:25.026Z,3.80
2022-08-14T17:08:28.631Z,3.80
2022-08-14T17:10:52.170Z,4.00
2022-08-14T17:13:27.353Z,3.92
2022-08-14T17:16:25.280Z,3.63
2022-08-14T17:19:00.806Z,4.65
2022-08-14T17:21:40.865Z,3.97
2022-08-14T17:24:57.289Z,3.97
2022-08-14T17:27:03.926Z,3.72
2022-08-14T17:29:56.129Z,4.00
2022-08-14T17:32:29.365Z,3.90
2022-08-14T17:34:57.850Z,4.53
2022-08-14T17:37:37.710Z,4.37
2022-08-14T17:40:16.920Z,4.95
2022-08-14T17:42:51.430Z,4.40
2022-08-14T17:45:26.754Z,4.40
2022-08-14T17:47:59.238Z,4.47
2022-08-14T17:50:59.620Z,4.33
2022-08-14T17:53:30.339Z,4.45
2022-08-14T17:56:02.819Z,4.28
2022-08-14T17:58:41.850Z,4.22
2022-08-14T18:01:13.598Z,4.38
2022-08-14T18:03:51.115Z,4.20
2022-08-14T18:06:40.143Z,4.65
2022-08-14T18:09:26.387Z,4.63
2022-08-14T18:11:58.755Z,4.65
2022-08-14T18:14:33.166Z,4.65
2022-08-14T18:17:15.972Z,4.57
2022-08-14T18:19:44.994Z,5.10
2022-08-14T18:22:30.918Z,6.28
2022-08-14T18:24:59.400Z,4.68
2022-08-14T18:27:43.475Z,5.13
2022-08-14T18:30:31.676Z,5.23
2022-08-14T18:33:22.831Z,5.25
2022-08-14T18:35:58.156Z,5.38
2022-08-14T18:38:46.257Z,5.28
2022-08-14T18:41:37.479Z,5.03
2022-08-14T18:44:10.612Z,5.13
2022-08-14T18:47:06.271Z,5.68
2022-08-14T18:50:00.703Z,4.80
2022-08-14T18:52:34.433Z,5.47
2022-08-14T18:55:20.876Z,5.63
2022-08-14T18:57:58.213Z,5.63
2022-08-14T19:00:51.310Z,5.72
2022-08-14T19:03:18.810Z,5.45
2022-08-14T19:05:49.630Z,6.07
2022-08-14T19:08:22.100Z,5.40
2022-08-14T19:10:54.672Z,5.63
2022-08-14T19:13:44.856Z,6.25
2022-08-14T19:16:22.751Z,5.57
2022-08-14T19:19:02.471Z,5.40
2022-08-14T19:21:43.475Z,6.00
2022-08-14T19:24:27.322Z,6.27
2022-08-14T19:27:23.628Z,5.70
2022-08-14T19:30:10.478Z,6.47
2022-08-14T19:32:50.688Z,7.03
2022-08-14T19:35:19.399Z,7.25
2022-08-14T19:37:54.952Z,6.57
2022-08-14T19:40:42.815Z,7.05
2022-08-14T19:43:22.520Z,7.80
2022-08-14T19:46:37.975Z,8.25
2022-08-14T19:48:57.337Z,8.02
2022-08-14T19:51:25.194Z,7.00
2022-08-14T19:54:13.245Z,8.00
2022-08-14T19:56:46.071Z,7.55
2022-08-14T19:59:19.234Z,7.95
2022-08-14T20:01:51.214Z,7.43
2022-08-14T20:04:46.195Z,7.50
2022-08-14T20:08:09.132Z,7.13
2022-08-14T20:11:04.938Z,6.63
2022-08-14T20:13:32.537Z,8.15
2022-08-14T20:16:12.576Z,8.02
2022-08-14T20:18:51.798Z,8.05
2022-08-14T20:21:21.542Z,7.47
2022-08-14T20:23:49.446Z,6.88
2022-08-14T20:26:31.414Z,7.78
2022-08-14T20:29:05.088Z,7.65
2022-08-14T20:31:36.417Z,7.88
2022-08-14T20:34:19.013Z,7.97
2022-08-14T20:37:09.897Z,8.07
2022-08-14T20:39:54.357Z,8.73
2022-08-14T20:42:43.556Z,8.35
2022-08-14T20:45:25.000Z,8.10
2022-08-14T20:48:09.082Z,8.70
2022-08-14T20:50:45.158Z,7.50
2022-08-14T20:53:35.545Z,8.30
2022-08-14T20:56:30.003Z,7.95
2022-08-14T20:59:15.481Z,8.27
2022-08-14T21:01:51.990Z,8.02
2022-08-14T21:04:32.713Z,8.10
2022-08-14T21:07:25.675Z,8.02
2022-08-14T21:10:35.826Z,8.25
2022-08-14T21:13:25.829Z,8.02
2022-08-14T21:15:57.344Z,7.88
2022-08-14T21:18:35.260Z,8.40
2022-08-14T21:21:18.231Z,8.65
2022-08-14T21:23:53.729Z,8.25
2022-08-14T21:26:50.985Z,9.90
2022-08-14T21:29:17.187Z,9.00
2022-08-14T21:31:55.555Z,8.93
2022-08-14T21:34:27.518Z,9.05
2022-08-14T21:37:08.982Z,8.75
2022-08-14T21:39:37.187Z,9.00
2022-08-14T21:42:06.119Z,9.48
2022-08-14T21:44:42.937Z,9.82
2022-08-14T21:47:12.189Z,9.05
2022-08-14T21:49:40.162Z,9.82
2022-08-14T21:52:52.225Z,9.07
2022-08-14T21:55:08.691Z,10.15
2022-08-14T21:58:46.049Z,10.10
2022-08-14T22:00:35.239Z,9.77
2022-08-14T22:03:08.879Z,10.65
2022-08-14T22:05:39.194Z,10.65
2022-08-14T22:08:07.503Z,10.07
2022-08-14T22:10:42.507Z,9.77
2022-08-14T22:13:12.288Z,9.43
2022-08-14T22:15:43.878Z,10.15
2022-08-14T22:18:20.621Z,11.00
2022-08-14T22:20:53.821Z,10.73
2022-08-14T22:23:23.897Z,10.10
2022-08-14T22:25:52.388Z,9.98
2022-08-14T22:28:32.916Z,10.68
2022-08-14T22:31:03.719Z,9.88
2022-08-14T22:33:38.423Z,10.30
2022-08-14T22:36:26.323Z,10.70
2022-08-14T22:38:54.947Z,10.68
2022-08-14T22:41:29.526Z,11.02
2022-08-14T22:44:02.471Z,11.57
2022-08-14T22:46:29.506Z,11.07
2022-08-14T22:48:57.354Z,11.30
2022-08-14T22:51:27.649Z,11.88
2022-08-14T22:53:58.253Z,13.02
2022-08-14T22:56:29.508Z,12.95
2022-08-14T22:59:02.583Z,13.98
2022-08-14T23:01:57.070Z,13.48
2022-08-14T23:04:34.885Z,13.23
2022-08-14T23:07:22.009Z,13.30
2022-08-14T23:09:57.649Z,13.60
2022-08-14T23:12:29.503Z,13.30
2022-08-14T23:15:05.404Z,14.05
2022-08-14T23:17:40.535Z,13.40
2022-08-14T23:20:18.774Z,14.65
2022-08-14T23:22:48.755Z,16.00
2022-08-14T23:25:20.095Z,14.88
2022-08-14T23:28:35.043Z,14.35
2022-08-14T23:30:55.367Z,14.55
2022-08-14T23:33:22.584Z,12.82
2022-08-14T23:35:59.107Z,14.40
2022-08-14T23:38:30.651Z,13.90
2022-08-14T23:41:00.622Z,14.38
2022-08-14T23:43:31.010Z,13.18
2022-08-14T23:45:58.859Z,14.40
2022-08-14T23:48:28.198Z,13.40
2022-08-14T23:50:56.375Z,14.32
2022-08-14T23:53:47.140Z,15.32
2022-08-14T23:56:32.387Z,14.02
2022-08-14T23:59:01.844Z,15.18
